sensor_id;sensor_type;location;lat;lon;timestamp;pressure;altitude;pressure_sealevel;temperature;humidity
54978;BME280;40873;47.522;19.106;2024-01-30T00:00:55;102721.03;;;-1.52;100.00
54978;BME280;40873;47.522;19.106;2024-01-30T00:03:43;102719.25;;;-1.53;100.00
54978;BME280;40873;47.522;19.106;2024-01-30T00:06:11;102718.50;;;-1.49;100.00
54978;BME280;40873;47.522;19.106;2024-01-30T00:08:43;102721.22;;;-1.45;100.00
54978;BME280;40873;47.522;19.106;2024-01-30T00:11:13;102724.56;;;-1.49;100.00
54978;BME280;40873;47.522;19.106;2024-01-30T00:13:40;102718.38;;;-1.54;100.00
54978;BME280;40873;47.522;19.106;2024-01-30T00:16:07;102707.91;;;-1.58;100.00
54978;BME280;40873;47.522;19.106;2024-01-30T00:18:36;102718.94;;;-1.66;100.00
54978;BME280;40873;47.522;19.106;2024-01-30T00:21:03;102721.38;;;-1.70;100.00
54978;BME280;40873;47.522;19.106;2024-01-30T00:23:31;102710.97;;;-1.73;100.00
54978;BME280;40873;47.522;19.106;2024-01-30T00:26:00;102715.16;;;-1.77;100.00
54978;BME280;40873;47.522;19.106;2024-01-30T00:28:33;102722.88;;;-1.78;100.00
54978;BME280;40873;47.522;19.106;2024-01-30T00:31:00;102726.19;;;-1.84;100.00
54978;BME280;40873;47.522;19.106;2024-01-30T00:33:27;102733.91;;;-1.85;100.00
54978;BME280;40873;47.522;19.106;2024-01-30T00:35:54;102730.50;;;-1.83;100.00
54978;BME280;40873;47.522;19.106;2024-01-30T00:38:21;102730.44;;;-1.86;100.00
54978;BME280;40873;47.522;19.106;2024-01-30T00:40:48;102726.97;;;-1.86;100.00
54978;BME280;40873;47.522;19.106;2024-01-30T00:43:23;102733.97;;;-1.82;100.00
54978;BME280;40873;47.522;19.106;2024-01-30T00:45:51;102738.38;;;-1.80;100.00
54978;BME280;40873;47.522;19.106;2024-01-30T00:48:24;102731.34;;;-1.84;100.00
54978;BME280;40873;47.522;19.106;2024-01-30T00:50:53;102729.47;;;-1.89;100.00
54978;BME280;40873;47.522;19.106;2024-01-30T00:53:23;102731.31;;;-1.85;100.00
54978;BME280;40873;47.522;19.106;2024-01-30T00:55:50;102733.06;;;-1.84;100.00
54978;BME280;40873;47.522;19.106;2024-01-30T00:58:17;102731.31;;;-1.85;100.00
54978;BME280;40873;47.522;19.106;2024-01-30T01:00:49;102727.72;;;-1.90;100.00
54978;BME280;40873;47.522;19.106;2024-01-30T01:03:19;102726.00;;;-1.90;100.00
54978;BME280;40873;47.522;19.106;2024-01-30T01:05:46;102724.09;;;-1.96;100.00
54978;BME280;40873;47.522;19.106;2024-01-30T01:08:13;102720.63;;;-1.96;100.00
54978;BME280;40873;47.522;19.106;2024-01-30T01:10:41;102718.94;;;-1.96;100.00
54978;BME280;40873;47.522;19.106;2024-01-30T01:13:10;102723.16;;;-1.99;100.00
54978;BME280;40873;47.522;19.106;2024-01-30T01:15:38;102715.47;;;-1.96;100.00
54978;BME280;40873;47.522;19.106;2024-01-30T01:18:05;102725.69;;;-2.01;100.00
54978;BME280;40873;47.522;19.106;2024-01-30T01:20:32;102720.53;;;-2.01;100.00
54978;BME280;40873;47.522;19.106;2024-01-30T01:22:59;102717.97;;;-1.99;100.00
54978;BME280;40873;47.522;19.106;2024-01-30T01:25:26;102722.09;;;-2.06;100.00
54978;BME280;40873;47.522;19.106;2024-01-30T01:27:57;102718.59;;;-2.08;100.00
54978;BME280;40873;47.522;19.106;2024-01-30T01:30:24;102715.16;;;-2.07;100.00
54978;BME280;40873;47.522;19.106;2024-01-30T01:32:52;102712.78;;;-2.01;100.00
54978;BME280;40873;47.522;19.106;2024-01-30T01:35:24;102718.66;;;-2.05;100.00
54978;BME280;40873;47.522;19.106;2024-01-30T01:37:52;102710.84;;;-2.08;100.00
54978;BME280;40873;47.522;19.106;2024-01-30T01:40:26;102716.03;;;-2.06;100.00
54978;BME280;40873;47.522;19.106;2024-01-30T01:42:55;102709.97;;;-2.08;100.00
54978;BME280;40873;47.522;19.106;2024-01-30T01:45:25;102707.25;;;-2.11;100.00
54978;BME280;40873;47.522;19.106;2024-01-30T01:47:52;102704.66;;;-2.13;100.00
54978;BME280;40873;47.522;19.106;2024-01-30T01:50:22;102707.09;;;-2.17;100.00
54978;BME280;40873;47.522;19.106;2024-01-30T01:52:50;102711.41;;;-2.16;100.00
54978;BME280;40873;47.522;19.106;2024-01-30T01:55:19;102701.94;;;-2.16;100.00
54978;BME280;40873;47.522;19.106;2024-01-30T01:57:53;102706.31;;;-2.15;100.00
54978;BME280;40873;47.522;19.106;2024-01-30T02:00:21;102706.25;;;-2.16;100.00
54978;BME280;40873;47.522;19.106;2024-01-30T02:02:49;102703.63;;;-2.18;100.00
54978;BME280;40873;47.522;19.106;2024-01-30T02:05:17;102708.84;;;-2.16;100.00
54978;BME280;40873;47.522;19.106;2024-01-30T02:07:45;102706.22;;;-2.18;100.00
54978;BME280;40873;47.522;19.106;2024-01-30T02:10:12;102705.38;;;-2.17;100.00
54978;BME280;40873;47.522;19.106;2024-01-30T02:12:41;102695.03;;;-2.17;100.00
54978;BME280;40873;47.522;19.106;2024-01-30T02:15:08;102702.72;;;-2.20;100.00
54978;BME280;40873;47.522;19.106;2024-01-30T02:17:37;102700.09;;;-2.22;100.00
54978;BME280;40873;47.522;19.106;2024-01-30T02:20:04;102700.00;;;-2.23;100.00
54978;BME280;40873;47.522;19.106;2024-01-30T02:22:33;102698.22;;;-2.26;100.00
54978;BME280;40873;47.522;19.106;2024-01-30T02:25:00;102696.47;;;-2.27;100.00
54978;BME280;40873;47.522;19.106;2024-01-30T02:27:30;102692.16;;;-2.28;100.00
54978;BME280;40873;47.522;19.106;2024-01-30T02:29:57;102691.13;;;-2.33;100.00
54978;BME280;40873;47.522;19.106;2024-01-30T02:32:24;102686.75;;;-2.35;100.00
54978;BME280;40873;47.522;19.106;2024-01-30T02:34:51;102697.94;;;-2.36;100.00
54978;BME280;40873;47.522;19.106;2024-01-30T02:37:18;102697.09;;;-2.35;100.00
54978;BME280;40873;47.522;19.106;2024-01-30T02:39:47;102703.91;;;-2.37;100.00
54978;BME280;40873;47.522;19.106;2024-01-30T02:42:16;102697.81;;;-2.39;100.00
54978;BME280;40873;47.522;19.106;2024-01-30T02:44:43;102706.38;;;-2.42;100.00
54978;BME280;40873;47.522;19.106;2024-01-30T02:47:10;102709.00;;;-2.40;100.00
54978;BME280;40873;47.522;19.106;2024-01-30T02:49:37;102707.28;;;-2.40;100.00
54978;BME280;40873;47.522;19.106;2024-01-30T02:52:05;102703.72;;;-2.43;100.00
54978;BME280;40873;47.522;19.106;2024-01-30T02:54:35;102700.22;;;-2.45;100.00
54978;BME280;40873;47.522;19.106;2024-01-30T02:57:03;102695.94;;;-2.43;100.00
54978;BME280;40873;47.522;19.106;2024-01-30T02:59:31;102696.75;;;-2.46;100.00
54978;BME280;40873;47.522;19.106;2024-01-30T03:02:03;102700.31;;;-2.42;100.00
54978;BME280;40873;47.522;19.106;2024-01-30T03:04:33;102692.41;;;-2.47;100.00
54978;BME280;40873;47.522;19.106;2024-01-30T03:07:00;102692.38;;;-2.49;100.00
54978;BME280;40873;47.522;19.106;2024-01-30T03:09:28;102694.91;;;-2.50;100.00
54978;BME280;40873;47.522;19.106;2024-01-30T03:11:55;102697.44;;;-2.52;100.00
54978;BME280;40873;47.522;19.106;2024-01-30T03:14:22;102694.84;;;-2.52;100.00
54978;BME280;40873;47.522;19.106;2024-01-30T03:16:49;102699.09;;;-2.54;100.00
54978;BME280;40873;47.522;19.106;2024-01-30T03:19:16;102704.19;;;-2.57;100.00
54978;BME280;40873;47.522;19.106;2024-01-30T03:21:44;102696.47;;;-2.55;100.00
54978;BME280;40873;47.522;19.106;2024-01-30T03:24:11;102697.34;;;-2.55;100.00
54978;BME280;40873;47.522;19.106;2024-01-30T03:26:38;102703.47;;;-2.51;100.00
54978;BME280;40873;47.522;19.106;2024-01-30T03:29:05;102699.06;;;-2.55;100.00
54978;BME280;40873;47.522;19.106;2024-01-30T03:31:32;102702.47;;;-2.56;100.00
54978;BME280;40873;47.522;19.106;2024-01-30T03:33:59;102701.50;;;-2.60;100.00
54978;BME280;40873;47.522;19.106;2024-01-30T03:36:26;102702.41;;;-2.58;100.00
54978;BME280;40873;47.522;19.106;2024-01-30T03:38:56;102697.94;;;-2.63;100.00
54978;BME280;40873;47.522;19.106;2024-01-30T03:41:23;102691.84;;;-2.65;100.00
54978;BME280;40873;47.522;19.106;2024-01-30T03:43:54;102689.22;;;-2.67;100.00
54978;BME280;40873;47.522;19.106;2024-01-30T03:46:22;102690.88;;;-2.69;100.00
54978;BME280;40873;47.522;19.106;2024-01-30T03:48:49;102687.47;;;-2.68;100.00
54978;BME280;40873;47.522;19.106;2024-01-30T03:51:16;102684.88;;;-2.68;100.00
54978;BME280;40873;47.522;19.106;2024-01-30T03:53:43;102683.22;;;-2.66;100.00
54978;BME280;40873;47.522;19.106;2024-01-30T03:56:10;102681.31;;;-2.71;100.00
54978;BME280;40873;47.522;19.106;2024-01-30T03:58:37;102678.69;;;-2.73;100.00
54978;BME280;40873;47.522;19.106;2024-01-30T04:01:07;102673.44;;;-2.76;100.00
54978;BME280;40873;47.522;19.106;2024-01-30T04:03:41;102678.59;;;-2.76;100.00
54978;BME280;40873;47.522;19.106;2024-01-30T04:06:08;102676.78;;;-2.79;100.00
54978;BME280;40873;47.522;19.106;2024-01-30T04:08:36;102678.44;;;-2.81;100.00
54978;BME280;40873;47.522;19.106;2024-01-30T04:11:04;102677.53;;;-2.83;100.00
54978;BME280;40873;47.522;19.106;2024-01-30T04:13:35;102672.44;;;-2.80;100.00
54978;BME280;40873;47.522;19.106;2024-01-30T04:16:03;102672.50;;;-2.78;100.00
54978;BME280;40873;47.522;19.106;2024-01-30T04:18:30;102667.38;;;-2.77;100.00
54978;BME280;40873;47.522;19.106;2024-01-30T04:20:57;102672.50;;;-2.78;100.00
54978;BME280;40873;47.522;19.106;2024-01-30T04:23:24;102672.25;;;-2.86;100.00
54978;BME280;40873;47.522;19.106;2024-01-30T04:25:54;102679.94;;;-2.87;100.00
54978;BME280;40873;47.522;19.106;2024-01-30T04:28:21;102673.75;;;-2.92;100.00
54978;BME280;40873;47.522;19.106;2024-01-30T04:30:49;102679.81;;;-2.92;100.00
54978;BME280;40873;47.522;19.106;2024-01-30T04:33:17;102675.47;;;-2.93;100.00
54978;BME280;40873;47.522;19.106;2024-01-30T04:35:46;102684.25;;;-2.88;100.00
54978;BME280;40873;47.522;19.106;2024-01-30T04:38:13;102678.91;;;-2.92;100.00
54978;BME280;40873;47.522;19.106;2024-01-30T04:40:41;102681.50;;;-2.92;100.00
54978;BME280;40873;47.522;19.106;2024-01-30T04:43:08;102678.00;;;-2.94;100.00
54978;BME280;40873;47.522;19.106;2024-01-30T04:45:44;102681.38;;;-2.97;100.00
54978;BME280;40873;47.522;19.106;2024-01-30T04:48:12;102682.28;;;-2.95;100.00
54978;BME280;40873;47.522;19.106;2024-01-30T04:50:39;102679.75;;;-2.93;100.00
54978;BME280;40873;47.522;19.106;2024-01-30T04:53:06;102687.47;;;-2.95;100.00
54978;BME280;40873;47.522;19.106;2024-01-30T04:55:35;102682.28;;;-2.95;100.00
54978;BME280;40873;47.522;19.106;2024-01-30T04:58:02;102687.38;;;-2.98;100.00
54978;BME280;40873;47.522;19.106;2024-01-30T05:00:30;102692.34;;;-3.04;100.00
54978;BME280;40873;47.522;19.106;2024-01-30T05:02:56;102697.34;;;-3.09;100.00
54978;BME280;40873;47.522;19.106;2024-01-30T05:05:24;102695.75;;;-3.05;100.00
54978;BME280;40873;47.522;19.106;2024-01-30T05:07:50;102693.16;;;-3.05;100.00
54978;BME280;40873;47.522;19.106;2024-01-30T05:10:18;102695.66;;;-3.07;100.00
54978;BME280;40873;47.522;19.106;2024-01-30T05:12:45;102698.31;;;-3.05;100.00
54978;BME280;40873;47.522;19.106;2024-01-30T05:15:12;102698.38;;;-3.04;100.00
54978;BME280;40873;47.522;19.106;2024-01-30T05:17:39;102711.50;;;-2.97;100.00
54978;BME280;40873;47.522;19.106;2024-01-30T05:20:07;102702.88;;;-2.98;100.00
54978;BME280;40873;47.522;19.106;2024-01-30T05:22:34;102715.00;;;-2.95;100.00
54978;BME280;40873;47.522;19.106;2024-01-30T05:25:05;102714.94;;;-2.97;100.00
54978;BME280;40873;47.522;19.106;2024-01-30T05:27:32;102729.56;;;-2.97;100.00
54978;BME280;40873;47.522;19.106;2024-01-30T05:30:02;102714.03;;;-2.99;100.00
54978;BME280;40873;47.522;19.106;2024-01-30T05:32:28;102719.03;;;-3.04;100.00
54978;BME280;40873;47.522;19.106;2024-01-30T05:34:56;102726.63;;;-3.08;100.00
54978;BME280;40873;47.522;19.106;2024-01-30T05:37:23;102723.16;;;-3.09;100.00
54978;BME280;40873;47.522;19.106;2024-01-30T05:39:50;102723.94;;;-3.11;100.00
54978;BME280;40873;47.522;19.106;2024-01-30T05:42:18;102724.91;;;-3.08;100.00
54978;BME280;40873;47.522;19.106;2024-01-30T05:44:45;102728.50;;;-3.04;100.00
54978;BME280;40873;47.522;19.106;2024-01-30T05:47:12;102729.25;;;-3.07;100.00
54978;BME280;40873;47.522;19.106;2024-01-30T05:49:39;102719.19;;;-2.99;100.00
54978;BME280;40873;47.522;19.106;2024-01-30T05:52:06;102722.75;;;-2.95;100.00
54978;BME280;40873;47.522;19.106;2024-01-30T05:54:36;102717.75;;;-2.91;100.00
54978;BME280;40873;47.522;19.106;2024-01-30T05:57:03;102724.44;;;-2.96;100.00
54978;BME280;40873;47.522;19.106;2024-01-30T05:59:32;102730.28;;;-3.01;100.00
54978;BME280;40873;47.522;19.106;2024-01-30T06:01:58;102723.94;;;-3.11;100.00
54978;BME280;40873;47.522;19.106;2024-01-30T06:04:26;102732.44;;;-3.14;100.00
54978;BME280;40873;47.522;19.106;2024-01-30T06:06:53;102734.03;;;-3.19;100.00
54978;BME280;40873;47.522;19.106;2024-01-30T06:09:21;102739.06;;;-3.22;100.00
54978;BME280;40873;47.522;19.106;2024-01-30T06:11:50;102737.31;;;-3.23;100.00
54978;BME280;40873;47.522;19.106;2024-01-30T06:14:20;102729.56;;;-3.23;100.00
54978;BME280;40873;47.522;19.106;2024-01-30T06:16:47;102737.31;;;-3.23;100.00
54978;BME280;40873;47.522;19.106;2024-01-30T06:19:16;102736.47;;;-3.22;100.00
54978;BME280;40873;47.522;19.106;2024-01-30T06:21:43;102730.59;;;-3.18;100.00
54978;BME280;40873;47.522;19.106;2024-01-30T06:24:13;102730.59;;;-3.18;100.00
54978;BME280;40873;47.522;19.106;2024-01-30T06:26:40;102732.44;;;-3.14;100.00
54978;BME280;40873;47.522;19.106;2024-01-30T06:29:08;102729.09;;;-3.11;100.00
54978;BME280;40873;47.522;19.106;2024-01-30T06:31:40;102727.50;;;-3.08;100.00
54978;BME280;40873;47.522;19.106;2024-01-30T06:34:10;102730.03;;;-3.09;100.00
54978;BME280;40873;47.522;19.106;2024-01-30T06:36:38;102730.88;;;-3.10;100.00
54978;BME280;40873;47.522;19.106;2024-01-30T06:39:06;102740.44;;;-3.06;100.00
54978;BME280;40873;47.522;19.106;2024-01-30T06:41:35;102738.78;;;-3.06;100.00
54978;BME280;40873;47.522;19.106;2024-01-30T06:44:03;102747.47;;;-3.02;100.00
54978;BME280;40873;47.522;19.106;2024-01-30T06:46:31;102743.41;;;-2.95;100.00
54978;BME280;40873;47.522;19.106;2024-01-30T06:48:59;102736.75;;;-2.89;100.00
54978;BME280;40873;47.522;19.106;2024-01-30T06:51:26;102748.03;;;-2.85;100.00
54978;BME280;40873;47.522;19.106;2024-01-30T06:53:54;102736.09;;;-2.82;100.00
54978;BME280;40873;47.522;19.106;2024-01-30T06:56:21;102736.34;;;-2.74;100.00
54978;BME280;40873;47.522;19.106;2024-01-30T06:58:50;102742.50;;;-2.70;100.00
54978;BME280;40873;47.522;19.106;2024-01-30T07:01:17;102738.31;;;-2.67;100.00
54978;BME280;40873;47.522;19.106;2024-01-30T07:03:46;102737.63;;;-2.61;100.00
54978;BME280;40873;47.522;19.106;2024-01-30T07:06:13;102734.13;;;-2.63;100.00
54978;BME280;40873;47.522;19.106;2024-01-30T07:08:41;102740.25;;;-2.60;100.00
54978;BME280;40873;47.522;19.106;2024-01-30T07:11:08;102741.28;;;-2.55;100.00
54978;BME280;40873;47.522;19.106;2024-01-30T07:13:35;102749.19;;;-2.50;100.00
54978;BME280;40873;47.522;19.106;2024-01-30T07:16:02;102740.66;;;-2.47;100.00
54978;BME280;40873;47.522;19.106;2024-01-30T07:18:29;102743.31;;;-2.44;100.00
54978;BME280;40873;47.522;19.106;2024-01-30T07:20:56;102749.56;;;-2.38;100.00
54978;BME280;40873;47.522;19.106;2024-01-30T07:23:24;102741.22;;;-2.29;100.00
54978;BME280;40873;47.522;19.106;2024-01-30T07:25:51;102747.41;;;-2.24;100.00
54978;BME280;40873;47.522;19.106;2024-01-30T07:28:18;102750.09;;;-2.21;100.00
54978;BME280;40873;47.522;19.106;2024-01-30T07:30:48;102748.41;;;-2.19;100.00
54978;BME280;40873;47.522;19.106;2024-01-30T07:33:19;102741.88;;;-2.08;100.00
54978;BME280;40873;47.522;19.106;2024-01-30T07:35:49;102744.56;;;-2.03;100.00
54978;BME280;40873;47.522;19.106;2024-01-30T07:38:19;102744.00;;;-1.95;100.00
54978;BME280;40873;47.522;19.106;2024-01-30T07:40:49;102741.72;;;-1.82;100.00
54978;BME280;40873;47.522;19.106;2024-01-30T07:43:16;102740.25;;;-1.74;100.00
54978;BME280;40873;47.522;19.106;2024-01-30T07:45:43;102735.25;;;-1.68;100.00
54978;BME280;40873;47.522;19.106;2024-01-30T07:48:11;102732.81;;;-1.62;100.00
54978;BME280;40873;47.522;19.106;2024-01-30T07:50:38;102737.34;;;-1.55;100.00
54978;BME280;40873;47.522;19.106;2024-01-30T07:53:05;102736.56;;;-1.52;100.00
54978;BME280;40873;47.522;19.106;2024-01-30T07:55:32;102731.69;;;-1.40;100.00
54978;BME280;40873;47.522;19.106;2024-01-30T07:58:18;102733.75;;;-1.28;100.00
54978;BME280;40873;47.522;19.106;2024-01-30T08:00:45;102730.56;;;-1.18;100.00
54978;BME280;40873;47.522;19.106;2024-01-30T08:03:13;102730.66;;;-1.14;100.00
54978;BME280;40873;47.522;19.106;2024-01-30T08:05:40;102734.31;;;-1.05;100.00
54978;BME280;40873;47.522;19.106;2024-01-30T08:08:11;102736.16;;;-1.01;100.00
54978;BME280;40873;47.522;19.106;2024-01-30T08:10:38;102734.75;;;-0.90;100.00
54978;BME280;40873;47.522;19.106;2024-01-30T08:13:07;102730.56;;;-0.84;100.00
54978;BME280;40873;47.522;19.106;2024-01-30T08:15:36;102736.03;;;-0.71;100.00
54978;BME280;40873;47.522;19.106;2024-01-30T08:18:03;102737.16;;;-0.62;100.00
54978;BME280;40873;47.522;19.106;2024-01-30T08:20:33;102742.72;;;-0.45;100.00
54978;BME280;40873;47.522;19.106;2024-01-30T08:23:04;102736.31;;;-0.23;100.00
54978;BME280;40873;47.522;19.106;2024-01-30T08:25:31;102740.94;;;-0.08;100.00
54978;BME280;40873;47.522;19.106;2024-01-30T08:27:58;102748.28;;;0.11;100.00
54978;BME280;40873;47.522;19.106;2024-01-30T08:30:25;102744.34;;;0.29;100.00
54978;BME280;40873;47.522;19.106;2024-01-30T08:32:52;102752.41;;;0.42;100.00
54978;BME280;40873;47.522;19.106;2024-01-30T08:35:20;102748.41;;;0.61;100.00
54978;BME280;40873;47.522;19.106;2024-01-30T08:37:48;102753.88;;;0.76;100.00
54978;BME280;40873;47.522;19.106;2024-01-30T08:40:16;102749.09;;;0.98;100.00
54978;BME280;40873;47.522;19.106;2024-01-30T08:42:44;102751.09;;;1.13;100.00
54978;BME280;40873;47.522;19.106;2024-01-30T08:45:11;102756.44;;;1.22;100.00
54978;BME280;40873;47.522;19.106;2024-01-30T08:47:38;102758.41;;;1.36;100.00
54978;BME280;40873;47.522;19.106;2024-01-30T08:50:07;102758.31;;;1.30;100.00
54978;BME280;40873;47.522;19.106;2024-01-30T08:52:35;102748.72;;;1.26;100.00
54978;BME280;40873;47.522;19.106;2024-01-30T08:55:02;102745.47;;;1.41;100.00
54978;BME280;40873;47.522;19.106;2024-01-30T08:57:30;102745.41;;;1.36;100.00
54978;BME280;40873;47.522;19.106;2024-01-30T09:00:03;102741.31;;;1.52;100.00
54978;BME280;40873;47.522;19.106;2024-01-30T09:02:33;102738.88;;;1.63;100.00
54978;BME280;40873;47.522;19.106;2024-01-30T09:05:01;102733.78;;;1.72;100.00
54978;BME280;40873;47.522;19.106;2024-01-30T09:07:28;102741.78;;;1.83;100.00
54978;BME280;40873;47.522;19.106;2024-01-30T09:09:55;102736.69;;;1.93;100.00
54978;BME280;40873;47.522;19.106;2024-01-30T09:12:22;102728.16;;;2.02;100.00
54978;BME280;40873;47.522;19.106;2024-01-30T09:14:49;102736.06;;;2.10;100.00
54978;BME280;40873;47.522;19.106;2024-01-30T09:17:20;102733.00;;;2.44;100.00
54978;BME280;40873;47.522;19.106;2024-01-30T09:19:47;102731.59;;;2.77;100.00
54978;BME280;40873;47.522;19.106;2024-01-30T09:22:14;102729.22;;;3.03;100.00
54978;BME280;40873;47.522;19.106;2024-01-30T09:24:43;102732.00;;;3.24;100.00
54978;BME280;40873;47.522;19.106;2024-01-30T09:27:10;102733.84;;;3.38;100.00
54978;BME280;40873;47.522;19.106;2024-01-30T09:29:37;102735.69;;;3.49;100.00
54978;BME280;40873;47.522;19.106;2024-01-30T09:32:05;102730.47;;;3.49;100.00
54978;BME280;40873;47.522;19.106;2024-01-30T09:34:33;102727.00;;;3.50;100.00
54978;BME280;40873;47.522;19.106;2024-01-30T09:37:00;102725.31;;;3.57;100.00
54978;BME280;40873;47.522;19.106;2024-01-30T09:39:27;102731.34;;;3.50;100.00
54978;BME280;40873;47.522;19.106;2024-01-30T09:42:02;102735.84;;;3.75;100.00
54978;BME280;40873;47.522;19.106;2024-01-30T09:44:34;102733.31;;;3.83;100.00
54978;BME280;40873;47.522;19.106;2024-01-30T09:47:03;102735.91;;;3.86;100.00
54978;BME280;40873;47.522;19.106;2024-01-30T09:49:34;102729.06;;;4.08;100.00
54978;BME280;40873;47.522;19.106;2024-01-30T09:52:06;102725.72;;;4.58;100.00
54978;BME280;40873;47.522;19.106;2024-01-30T09:54:34;102723.19;;;4.81;100.00
54978;BME280;40873;47.522;19.106;2024-01-30T09:57:04;102726.63;;;4.61;100.00
54978;BME280;40873;47.522;19.106;2024-01-30T09:59:35;102726.59;;;4.58;100.00
54978;BME280;40873;47.522;19.106;2024-01-30T10:02:04;102724.03;;;4.77;100.00
54978;BME280;40873;47.522;19.106;2024-01-30T10:04:31;102726.66;;;5.41;100.00
54978;BME280;40873;47.522;19.106;2024-01-30T10:07:02;102732.78;;;5.46;100.00
54978;BME280;40873;47.522;19.106;2024-01-30T10:09:33;102723.19;;;5.43;100.00
54978;BME280;40873;47.522;19.106;2024-01-30T10:12:05;102731.88;;;5.67;100.00
54978;BME280;40873;47.522;19.106;2024-01-30T10:14:32;102731.88;;;5.55;100.00
54978;BME280;40873;47.522;19.106;2024-01-30T10:17:01;102730.06;;;6.02;100.00
54978;BME280;40873;47.522;19.106;2024-01-30T10:19:36;102729.25;;;5.71;100.00
54978;BME280;40873;47.522;19.106;2024-01-30T10:22:04;102721.44;;;5.39;100.00
54978;BME280;40873;47.522;19.106;2024-01-30T10:24:33;102712.72;;;5.20;100.00
54978;BME280;40873;47.522;19.106;2024-01-30T10:27:00;102714.44;;;5.64;100.00
54978;BME280;40873;47.522;19.106;2024-01-30T10:29:28;102709.09;;;6.04;100.00
54978;BME280;40873;47.522;19.106;2024-01-30T10:32:03;102705.59;;;6.02;100.00
54978;BME280;40873;47.522;19.106;2024-01-30T10:34:30;102704.75;;;5.88;100.00
54978;BME280;40873;47.522;19.106;2024-01-30T10:37:08;102704.72;;;6.12;100.00
54978;BME280;40873;47.522;19.106;2024-01-30T10:39:43;102703.91;;;5.69;100.00
54978;BME280;40873;47.522;19.106;2024-01-30T10:42:31;102696.13;;;5.52;100.00
54978;BME280;40873;47.522;19.106;2024-01-30T10:45:09;102689.09;;;5.72;100.00
54978;BME280;40873;47.522;19.106;2024-01-30T10:47:37;102681.88;;;6.34;100.00
54978;BME280;40873;47.522;19.106;2024-01-30T10:50:04;102681.50;;;6.86;100.00
54978;BME280;40873;47.522;19.106;2024-01-30T10:52:32;102675.19;;;7.11;100.00
54978;BME280;40873;47.522;19.106;2024-01-30T10:55:04;102664.50;;;7.28;100.00
54978;BME280;40873;47.522;19.106;2024-01-30T10:57:34;102668.53;;;6.69;100.00
54978;BME280;40873;47.522;19.106;2024-01-30T11:00:11;102662.47;;;7.56;100.00
54978;BME280;40873;47.522;19.106;2024-01-30T11:02:45;102661.31;;;7.79;100.00
54978;BME280;40873;47.522;19.106;2024-01-30T11:05:13;102652.78;;;7.61;100.00
54978;BME280;40873;47.522;19.106;2024-01-30T11:07:47;102654.38;;;7.76;100.00
54978;BME280;40873;47.522;19.106;2024-01-30T11:10:14;102657.09;;;7.68;100.00
54978;BME280;40873;47.522;19.106;2024-01-30T11:12:48;102654.63;;;7.55;100.00
54978;BME280;40873;47.522;19.106;2024-01-30T11:15:17;102649.97;;;6.92;100.00
54978;BME280;40873;47.522;19.106;2024-01-30T11:20:16;102653.00;;;7.45;100.00
54978;BME280;40873;47.522;19.106;2024-01-30T11:22:46;102640.31;;;6.94;100.00
54978;BME280;40873;47.522;19.106;2024-01-30T11:25:15;102640.69;;;7.47;100.00
54978;BME280;40873;47.522;19.106;2024-01-30T11:27:55;102632.69;;;7.59;100.00
54978;BME280;40873;47.522;19.106;2024-01-30T11:30:24;102632.34;;;7.85;100.00
54978;BME280;40873;47.522;19.106;2024-01-30T11:33:06;102636.03;;;7.70;100.00
54978;BME280;40873;47.522;19.106;2024-01-30T11:35:45;102627.88;;;7.94;100.00
54978;BME280;40873;47.522;19.106;2024-01-30T11:38:14;102637.28;;;7.38;100.00
54978;BME280;40873;47.522;19.106;2024-01-30T11:40:41;102626.47;;;6.78;100.00
54978;BME280;40873;47.522;19.106;2024-01-30T11:43:09;102623.53;;;5.95;100.00
54978;BME280;40873;47.522;19.106;2024-01-30T11:45:36;102618.41;;;5.62;100.00
54978;BME280;40873;47.522;19.106;2024-01-30T11:48:07;102622.81;;;5.52;100.00
54978;BME280;40873;47.522;19.106;2024-01-30T11:50:38;102623.66;;;5.54;100.00
54978;BME280;40873;47.522;19.106;2024-01-30T11:53:09;102620.16;;;5.61;100.00
54978;BME280;40873;47.522;19.106;2024-01-30T11:55:38;102610.47;;;5.85;100.00
54978;BME280;40873;47.522;19.106;2024-01-30T11:58:06;102601.81;;;5.70;100.00
54978;BME280;40873;47.522;19.106;2024-01-30T12:00:33;102610.47;;;5.77;100.00
54978;BME280;40873;47.522;19.106;2024-01-30T12:03:02;102607.03;;;5.66;100.00
54978;BME280;40873;47.522;19.106;2024-01-30T12:05:30;102591.41;;;5.46;100.00
54978;BME280;40873;47.522;19.106;2024-01-30T12:08:01;102594.91;;;5.40;100.00
54978;BME280;40873;47.522;19.106;2024-01-30T12:10:29;102591.44;;;5.32;100.00
54978;BME280;40873;47.522;19.106;2024-01-30T12:12:57;102585.34;;;5.27;100.00
54978;BME280;40873;47.522;19.106;2024-01-30T12:15:25;102581.81;;;5.49;100.00
54978;BME280;40873;47.522;19.106;2024-01-30T12:18:04;102587.09;;;5.33;100.00
54978;BME280;40873;47.522;19.106;2024-01-30T12:20:34;102581.88;;;5.17;100.00
54978;BME280;40873;47.522;19.106;2024-01-30T12:23:02;102577.53;;;5.18;100.00
54978;BME280;40873;47.522;19.106;2024-01-30T12:25:29;102567.88;;;5.35;100.00
54978;BME280;40873;47.522;19.106;2024-01-30T12:28:03;102568.72;;;5.46;100.00
54978;BME280;40873;47.522;19.106;2024-01-30T12:30:30;102574.84;;;5.38;100.00
54978;BME280;40873;47.522;19.106;2024-01-30T12:32:57;102571.41;;;5.23;100.00
54978;BME280;40873;47.522;19.106;2024-01-30T12:35:25;102579.31;;;4.85;100.00
54978;BME280;40873;47.522;19.106;2024-01-30T12:37:52;102561.00;;;5.04;100.00
54978;BME280;40873;47.522;19.106;2024-01-30T12:40:20;102566.22;;;5.08;100.00
54978;BME280;40873;47.522;19.106;2024-01-30T12:42:47;102570.53;;;5.20;100.00